sensor_id;sensor_type;location;lat;lon;timestamp;P1;durP1;ratioP1;P2;durP2;ratioP2
30020;SDS011;16861;52.294;7.760;2022-12-05T00:00:57;38.42;;;21.10;;
30020;SDS011;16861;52.294;7.760;2022-12-05T00:03:25;41.78;;;21.55;;
30020;SDS011;16861;52.294;7.760;2022-12-05T00:05:51;41.53;;;22.30;;
30020;SDS011;16861;52.294;7.760;2022-12-05T00:08:18;39.90;;;21.15;;
30020;SDS011;16861;52.294;7.760;2022-12-05T00:10:44;42.72;;;22.60;;
30020;SDS011;16861;52.294;7.760;2022-12-05T00:13:11;40.40;;;20.95;;
30020;SDS011;16861;52.294;7.760;2022-12-05T00:15:38;41.78;;;22.65;;
30020;SDS011;16861;52.294;7.760;2022-12-05T00:18:05;36.88;;;20.90;;
30020;SDS011;16861;52.294;7.760;2022-12-05T00:20:32;40.40;;;21.83;;
30020;SDS011;16861;52.294;7.760;2022-12-05T00:22:59;42.08;;;22.17;;
30020;SDS011;16861;52.294;7.760;2022-12-05T00:25:26;38.97;;;21.40;;
30020;SDS011;16861;52.294;7.760;2022-12-05T00:27:52;40.97;;;22.08;;
30020;SDS011;16861;52.294;7.760;2022-12-05T00:30:19;38.97;;;21.17;;
30020;SDS011;16861;52.294;7.760;2022-12-05T00:32:45;39.10;;;21.45;;
30020;SDS011;16861;52.294;7.760;2022-12-05T00:35:12;40.35;;;21.52;;
30020;SDS011;16861;52.294;7.760;2022-12-05T00:37:38;40.78;;;21.27;;
30020;SDS011;16861;52.294;7.760;2022-12-05T00:40:04;42.65;;;22.67;;
30020;SDS011;16861;52.294;7.760;2022-12-05T00:42:31;41.67;;;21.25;;
30020;SDS011;16861;52.294;7.760;2022-12-05T00:44:58;39.58;;;22.48;;
30020;SDS011;16861;52.294;7.760;2022-12-05T00:47:24;39.28;;;20.95;;
30020;SDS011;16861;52.294;7.760;2022-12-05T00:49:50;40.00;;;21.40;;
30020;SDS011;16861;52.294;7.760;2022-12-05T00:52:17;39.22;;;20.25;;
30020;SDS011;16861;52.294;7.760;2022-12-05T00:54:43;39.55;;;20.73;;
30020;SDS011;16861;52.294;7.760;2022-12-05T00:57:10;38.80;;;20.25;;
30020;SDS011;16861;52.294;7.760;2022-12-05T00:59:36;37.58;;;21.40;;
30020;SDS011;16861;52.294;7.760;2022-12-05T01:02:02;38.03;;;21.58;;
30020;SDS011;16861;52.294;7.760;2022-12-05T01:04:29;39.15;;;21.73;;
30020;SDS011;16861;52.294;7.760;2022-12-05T01:06:56;40.22;;;21.77;;
30020;SDS011;16861;52.294;7.760;2022-12-05T01:09:23;40.60;;;22.02;;
30020;SDS011;16861;52.294;7.760;2022-12-05T01:11:50;40.28;;;21.52;;
30020;SDS011;16861;52.294;7.760;2022-12-05T01:14:19;41.15;;;22.25;;
30020;SDS011;16861;52.294;7.760;2022-12-05T01:16:48;36.75;;;21.45;;
30020;SDS011;16861;52.294;7.760;2022-12-05T01:19:18;39.95;;;21.65;;
30020;SDS011;16861;52.294;7.760;2022-12-05T01:21:47;39.42;;;21.65;;
30020;SDS011;16861;52.294;7.760;2022-12-05T01:24:14;38.17;;;21.33;;
30020;SDS011;16861;52.294;7.760;2022-12-05T01:26:41;42.55;;;21.55;;
30020;SDS011;16861;52.294;7.760;2022-12-05T01:29:08;39.00;;;21.98;;
30020;SDS011;16861;52.294;7.760;2022-12-05T01:31:36;38.47;;;21.30;;
30020;SDS011;16861;52.294;7.760;2022-12-05T01:34:04;38.95;;;21.15;;
30020;SDS011;16861;52.294;7.760;2022-12-05T01:36:32;36.90;;;20.30;;
30020;SDS011;16861;52.294;7.760;2022-12-05T01:38:58;38.10;;;21.15;;
30020;SDS011;16861;52.294;7.760;2022-12-05T01:41:29;36.50;;;20.00;;
30020;SDS011;16861;52.294;7.760;2022-12-05T01:46:29;35.63;;;20.42;;
30020;SDS011;16861;52.294;7.760;2022-12-05T01:49:13;34.90;;;20.50;;
30020;SDS011;16861;52.294;7.760;2022-12-05T01:51:42;37.47;;;20.45;;
30020;SDS011;16861;52.294;7.760;2022-12-05T01:54:12;33.85;;;20.13;;
30020;SDS011;16861;52.294;7.760;2022-12-05T01:56:40;35.10;;;20.05;;
30020;SDS011;16861;52.294;7.760;2022-12-05T01:59:09;32.30;;;18.52;;
30020;SDS011;16861;52.294;7.760;2022-12-05T02:01:37;34.80;;;19.85;;
30020;SDS011;16861;52.294;7.760;2022-12-05T02:04:05;34.35;;;18.45;;
30020;SDS011;16861;52.294;7.760;2022-12-05T02:06:34;34.78;;;18.80;;
30020;SDS011;16861;52.294;7.760;2022-12-05T02:09:01;35.72;;;19.20;;
30020;SDS011;16861;52.294;7.760;2022-12-05T02:11:27;36.10;;;19.80;;
30020;SDS011;16861;52.294;7.760;2022-12-05T02:14:03;31.98;;;18.63;;
30020;SDS011;16861;52.294;7.760;2022-12-05T02:16:40;29.60;;;17.65;;
30020;SDS011;16861;52.294;7.760;2022-12-05T02:30:32;30.40;;;16.88;;
30020;SDS011;16861;52.294;7.760;2022-12-05T02:33:19;30.00;;;17.33;;
30020;SDS011;16861;52.294;7.760;2022-12-05T02:36:02;31.17;;;17.05;;
30020;SDS011;16861;52.294;7.760;2022-12-05T02:38:35;33.05;;;17.05;;
30020;SDS011;16861;52.294;7.760;2022-12-05T02:41:21;28.77;;;17.25;;
30020;SDS011;16861;52.294;7.760;2022-12-05T02:44:16;28.05;;;16.88;;
30020;SDS011;16861;52.294;7.760;2022-12-05T02:46:48;29.98;;;16.33;;
30020;SDS011;16861;52.294;7.760;2022-12-05T02:49:21;28.73;;;16.50;;
30020;SDS011;16861;52.294;7.760;2022-12-05T02:51:52;29.55;;;16.73;;
30020;SDS011;16861;52.294;7.760;2022-12-05T02:54:23;28.38;;;16.25;;
30020;SDS011;16861;52.294;7.760;2022-12-05T02:56:52;30.52;;;16.10;;
30020;SDS011;16861;52.294;7.760;2022-12-05T02:59:21;28.95;;;17.35;;
30020;SDS011;16861;52.294;7.760;2022-12-05T03:01:49;28.52;;;16.75;;
30020;SDS011;16861;52.294;7.760;2022-12-05T03:04:16;27.98;;;16.17;;
30020;SDS011;16861;52.294;7.760;2022-12-05T03:06:47;26.10;;;16.33;;
30020;SDS011;16861;52.294;7.760;2022-12-05T03:11:55;22.95;;;14.52;;
30020;SDS011;16861;52.294;7.760;2022-12-05T03:14:32;22.85;;;13.30;;
30020;SDS011;16861;52.294;7.760;2022-12-05T03:17:06;25.67;;;14.25;;
30020;SDS011;16861;52.294;7.760;2022-12-05T03:19:43;24.63;;;14.30;;
30020;SDS011;16861;52.294;7.760;2022-12-05T03:22:21;24.10;;;14.15;;
30020;SDS011;16861;52.294;7.760;2022-12-05T03:24:52;22.55;;;13.93;;
30020;SDS011;16861;52.294;7.760;2022-12-05T03:27:21;22.33;;;14.25;;
30020;SDS011;16861;52.294;7.760;2022-12-05T03:29:52;24.35;;;14.57;;
30020;SDS011;16861;52.294;7.760;2022-12-05T03:32:30;22.23;;;13.90;;
30020;SDS011;16861;52.294;7.760;2022-12-05T03:40:22;22.83;;;12.40;;
30020;SDS011;16861;52.294;7.760;2022-12-05T03:42:53;22.30;;;13.30;;
30020;SDS011;16861;52.294;7.760;2022-12-05T03:48:33;21.15;;;13.88;;
30020;SDS011;16861;52.294;7.760;2022-12-05T03:51:03;22.52;;;13.63;;
30020;SDS011;16861;52.294;7.760;2022-12-05T03:53:34;23.75;;;14.95;;
30020;SDS011;16861;52.294;7.760;2022-12-05T03:56:12;22.02;;;14.05;;
30020;SDS011;16861;52.294;7.760;2022-12-05T03:58:44;21.95;;;13.45;;
30020;SDS011;16861;52.294;7.760;2022-12-05T04:01:16;21.17;;;13.52;;
30020;SDS011;16861;52.294;7.760;2022-12-05T04:03:47;21.00;;;13.23;;
30020;SDS011;16861;52.294;7.760;2022-12-05T04:06:26;20.70;;;13.00;;
30020;SDS011;16861;52.294;7.760;2022-12-05T04:08:58;20.33;;;12.75;;
30020;SDS011;16861;52.294;7.760;2022-12-05T04:11:30;19.67;;;13.30;;
30020;SDS011;16861;52.294;7.760;2022-12-05T04:14:04;21.45;;;13.27;;
30020;SDS011;16861;52.294;7.760;2022-12-05T04:17:20;22.98;;;13.88;;
30020;SDS011;16861;52.294;7.760;2022-12-05T04:19:51;19.35;;;12.90;;
30020;SDS011;16861;52.294;7.760;2022-12-05T04:22:39;20.50;;;13.27;;
30020;SDS011;16861;52.294;7.760;2022-12-05T04:25:08;20.08;;;12.30;;
30020;SDS011;16861;52.294;7.760;2022-12-05T04:31:03;24.85;;;13.40;;
30020;SDS011;16861;52.294;7.760;2022-12-05T04:33:33;20.00;;;12.20;;
30020;SDS011;16861;52.294;7.760;2022-12-05T04:36:27;20.08;;;12.80;;
30020;SDS011;16861;52.294;7.760;2022-12-05T04:38:59;22.20;;;13.32;;
30020;SDS011;16861;52.294;7.760;2022-12-05T04:41:40;19.95;;;12.60;;
30020;SDS011;16861;52.294;7.760;2022-12-05T04:44:13;21.73;;;13.05;;
30020;SDS011;16861;52.294;7.760;2022-12-05T04:46:42;21.60;;;13.05;;
30020;SDS011;16861;52.294;7.760;2022-12-05T04:49:11;21.42;;;13.93;;
30020;SDS011;16861;52.294;7.760;2022-12-05T04:51:42;20.50;;;13.07;;
30020;SDS011;16861;52.294;7.760;2022-12-05T04:54:19;22.80;;;13.55;;
30020;SDS011;16861;52.294;7.760;2022-12-05T04:56:49;19.98;;;12.52;;
30020;SDS011;16861;52.294;7.760;2022-12-05T04:59:26;20.25;;;12.93;;
30020;SDS011;16861;52.294;7.760;2022-12-05T05:01:53;20.40;;;12.93;;
30020;SDS011;16861;52.294;7.760;2022-12-05T05:04:27;22.65;;;14.40;;
30020;SDS011;16861;52.294;7.760;2022-12-05T05:07:03;23.42;;;14.32;;
30020;SDS011;16861;52.294;7.760;2022-12-05T05:09:31;21.30;;;13.27;;
30020;SDS011;16861;52.294;7.760;2022-12-05T05:11:58;21.02;;;13.77;;
30020;SDS011;16861;52.294;7.760;2022-12-05T05:14:24;20.00;;;13.20;;
30020;SDS011;16861;52.294;7.760;2022-12-05T05:16:51;21.05;;;13.40;;
30020;SDS011;16861;52.294;7.760;2022-12-05T05:19:17;21.45;;;13.27;;
30020;SDS011;16861;52.294;7.760;2022-12-05T05:21:44;21.10;;;13.48;;
30020;SDS011;16861;52.294;7.760;2022-12-05T05:24:10;19.90;;;12.70;;
30020;SDS011;16861;52.294;7.760;2022-12-05T05:26:38;19.80;;;13.00;;
30020;SDS011;16861;52.294;7.760;2022-12-05T05:29:06;22.13;;;13.38;;
30020;SDS011;16861;52.294;7.760;2022-12-05T05:31:33;19.60;;;13.13;;
30020;SDS011;16861;52.294;7.760;2022-12-05T05:34:00;21.33;;;13.43;;
30020;SDS011;16861;52.294;7.760;2022-12-05T05:36:34;22.75;;;14.18;;
30020;SDS011;16861;52.294;7.760;2022-12-05T05:39:02;20.48;;;13.18;;
30020;SDS011;16861;52.294;7.760;2022-12-05T05:41:30;21.65;;;14.52;;
30020;SDS011;16861;52.294;7.760;2022-12-05T05:43:58;20.23;;;13.55;;
30020;SDS011;16861;52.294;7.760;2022-12-05T05:46:26;19.70;;;13.32;;
30020;SDS011;16861;52.294;7.760;2022-12-05T05:48:55;20.45;;;13.93;;
30020;SDS011;16861;52.294;7.760;2022-12-05T05:51:22;23.23;;;14.85;;
30020;SDS011;16861;52.294;7.760;2022-12-05T05:53:54;22.33;;;14.75;;
30020;SDS011;16861;52.294;7.760;2022-12-05T05:56:21;23.75;;;14.20;;
30020;SDS011;16861;52.294;7.760;2022-12-05T05:58:53;21.13;;;13.50;;
30020;SDS011;16861;52.294;7.760;2022-12-05T06:01:21;20.73;;;14.23;;
30020;SDS011;16861;52.294;7.760;2022-12-05T06:03:48;21.45;;;14.27;;
30020;SDS011;16861;52.294;7.760;2022-12-05T06:06:16;21.63;;;14.18;;
30020;SDS011;16861;52.294;7.760;2022-12-05T06:08:44;21.35;;;13.65;;
30020;SDS011;16861;52.294;7.760;2022-12-05T06:11:13;20.98;;;13.82;;
30020;SDS011;16861;52.294;7.760;2022-12-05T06:13:50;22.10;;;14.02;;
30020;SDS011;16861;52.294;7.760;2022-12-05T06:16:17;23.67;;;14.20;;
30020;SDS011;16861;52.294;7.760;2022-12-05T06:18:46;20.90;;;13.85;;
30020;SDS011;16861;52.294;7.760;2022-12-05T06:21:14;22.77;;;13.70;;
30020;SDS011;16861;52.294;7.760;2022-12-05T06:23:42;23.98;;;14.20;;
30020;SDS011;16861;52.294;7.760;2022-12-05T06:26:09;24.27;;;13.88;;
30020;SDS011;16861;52.294;7.760;2022-12-05T06:28:38;22.70;;;13.00;;
30020;SDS011;16861;52.294;7.760;2022-12-05T06:31:05;21.15;;;13.35;;
30020;SDS011;16861;52.294;7.760;2022-12-05T06:33:36;25.08;;;13.95;;
30020;SDS011;16861;52.294;7.760;2022-12-05T06:36:07;21.83;;;13.98;;
30020;SDS011;16861;52.294;7.760;2022-12-05T06:38:35;23.90;;;14.23;;
30020;SDS011;16861;52.294;7.760;2022-12-05T06:41:08;21.07;;;13.90;;
30020;SDS011;16861;52.294;7.760;2022-12-05T06:43:37;21.27;;;13.30;;
30020;SDS011;16861;52.294;7.760;2022-12-05T06:46:07;21.80;;;13.05;;
30020;SDS011;16861;52.294;7.760;2022-12-05T06:48:35;21.98;;;13.75;;
30020;SDS011;16861;52.294;7.760;2022-12-05T06:51:01;21.92;;;13.45;;
30020;SDS011;16861;52.294;7.760;2022-12-05T06:53:28;20.33;;;13.45;;
30020;SDS011;16861;52.294;7.760;2022-12-05T06:55:55;22.85;;;13.05;;
30020;SDS011;16861;52.294;7.760;2022-12-05T06:58:23;18.50;;;12.20;;
30020;SDS011;16861;52.294;7.760;2022-12-05T07:00:51;17.63;;;12.55;;
30020;SDS011;16861;52.294;7.760;2022-12-05T07:03:36;18.80;;;11.98;;
30020;SDS011;16861;52.294;7.760;2022-12-05T07:06:04;21.00;;;12.82;;
30020;SDS011;16861;52.294;7.760;2022-12-05T07:08:32;20.92;;;12.43;;
30020;SDS011;16861;52.294;7.760;2022-12-05T07:11:00;21.55;;;12.50;;
30020;SDS011;16861;52.294;7.760;2022-12-05T07:13:30;20.70;;;11.75;;
30020;SDS011;16861;52.294;7.760;2022-12-05T07:25:20;20.83;;;12.00;;
30020;SDS011;16861;52.294;7.760;2022-12-05T07:27:56;20.27;;;12.35;;
30020;SDS011;16861;52.294;7.760;2022-12-05T07:30:22;17.48;;;11.63;;
30020;SDS011;16861;52.294;7.760;2022-12-05T07:33:02;20.70;;;12.32;;
30020;SDS011;16861;52.294;7.760;2022-12-05T07:35:28;20.27;;;13.02;;
30020;SDS011;16861;52.294;7.760;2022-12-05T07:37:56;20.05;;;11.23;;
30020;SDS011;16861;52.294;7.760;2022-12-05T07:40:23;18.77;;;11.98;;
30020;SDS011;16861;52.294;7.760;2022-12-05T07:42:57;19.40;;;12.98;;
30020;SDS011;16861;52.294;7.760;2022-12-05T07:45:23;20.08;;;12.00;;
30020;SDS011;16861;52.294;7.760;2022-12-05T07:47:50;19.00;;;12.20;;
30020;SDS011;16861;52.294;7.760;2022-12-05T07:50:16;24.05;;;12.50;;
30020;SDS011;16861;52.294;7.760;2022-12-05T07:52:43;22.88;;;12.45;;
30020;SDS011;16861;52.294;7.760;2022-12-05T07:57:46;16.70;;;11.55;;
30020;SDS011;16861;52.294;7.760;2022-12-05T08:00:26;19.48;;;12.05;;
30020;SDS011;16861;52.294;7.760;2022-12-05T08:02:53;19.42;;;11.90;;
30020;SDS011;16861;52.294;7.760;2022-12-05T08:05:19;20.35;;;11.93;;
30020;SDS011;16861;52.294;7.760;2022-12-05T08:07:46;23.98;;;12.20;;
30020;SDS011;16861;52.294;7.760;2022-12-05T08:10:20;34.22;;;12.88;;
30020;SDS011;16861;52.294;7.760;2022-12-05T08:12:48;25.92;;;12.77;;
30020;SDS011;16861;52.294;7.760;2022-12-05T08:15:22;19.10;;;11.63;;
30020;SDS011;16861;52.294;7.760;2022-12-05T08:17:48;21.90;;;12.35;;
30020;SDS011;16861;52.294;7.760;2022-12-05T08:20:17;28.17;;;12.75;;
30020;SDS011;16861;52.294;7.760;2022-12-05T08:22:43;26.75;;;12.70;;
30020;SDS011;16861;52.294;7.760;2022-12-05T08:25:18;30.20;;;13.18;;
30020;SDS011;16861;52.294;7.760;2022-12-05T08:27:44;34.28;;;13.40;;
30020;SDS011;16861;52.294;7.760;2022-12-05T08:32:58;22.80;;;12.63;;
30020;SDS011;16861;52.294;7.760;2022-12-05T08:35:25;44.38;;;13.45;;
30020;SDS011;16861;52.294;7.760;2022-12-05T08:37:51;30.45;;;12.55;;
30020;SDS011;16861;52.294;7.760;2022-12-05T08:40:25;63.08;;;13.20;;
30020;SDS011;16861;52.294;7.760;2022-12-05T08:42:51;54.88;;;12.85;;
30020;SDS011;16861;52.294;7.760;2022-12-05T08:45:19;35.88;;;12.55;;
30020;SDS011;16861;52.294;7.760;2022-12-05T08:47:45;26.23;;;10.68;;
30020;SDS011;16861;52.294;7.760;2022-12-05T08:50:25;43.80;;;12.98;;
30020;SDS011;16861;52.294;7.760;2022-12-05T08:52:51;32.45;;;12.10;;
30020;SDS011;16861;52.294;7.760;2022-12-05T08:57:49;70.88;;;13.25;;
30020;SDS011;16861;52.294;7.760;2022-12-05T09:00:16;40.67;;;11.52;;
30020;SDS011;16861;52.294;7.760;2022-12-05T09:02:43;44.75;;;12.82;;
30020;SDS011;16861;52.294;7.760;2022-12-05T09:05:12;74.57;;;12.70;;
30020;SDS011;16861;52.294;7.760;2022-12-05T09:07:54;46.58;;;13.45;;
30020;SDS011;16861;52.294;7.760;2022-12-05T09:10:30;52.35;;;13.60;;
30020;SDS011;16861;52.294;7.760;2022-12-05T09:12:57;38.00;;;13.13;;
30020;SDS011;16861;52.294;7.760;2022-12-05T09:15:41;38.03;;;11.63;;
30020;SDS011;16861;52.294;7.760;2022-12-05T09:18:08;33.05;;;11.80;;
30020;SDS011;16861;52.294;7.760;2022-12-05T09:23:04;28.27;;;12.23;;
30020;SDS011;16861;52.294;7.760;2022-12-05T09:25:39;26.35;;;12.23;;
30020;SDS011;16861;52.294;7.760;2022-12-05T09:28:06;27.02;;;12.05;;
30020;SDS011;16861;52.294;7.760;2022-12-05T09:33:29;27.08;;;12.30;;
30020;SDS011;16861;52.294;7.760;2022-12-05T09:36:06;22.63;;;12.52;;
30020;SDS011;16861;52.294;7.760;2022-12-05T09:38:34;25.63;;;12.05;;
30020;SDS011;16861;52.294;7.760;2022-12-05T09:44:12;22.00;;;11.32;;
30020;SDS011;16861;52.294;7.760;2022-12-05T09:46:54;19.05;;;10.57;;
30020;SDS011;16861;52.294;7.760;2022-12-05T09:49:25;15.80;;;10.02;;
30020;SDS011;16861;52.294;7.760;2022-12-05T09:51:55;12.60;;;8.43;;
30020;SDS011;16861;52.294;7.760;2022-12-05T09:54:26;10.40;;;7.50;;
30020;SDS011;16861;52.294;7.760;2022-12-05T09:56:53;14.00;;;8.20;;
30020;SDS011;16861;52.294;7.760;2022-12-05T09:59:20;12.05;;;7.70;;
30020;SDS011;16861;52.294;7.760;2022-12-05T10:15:02;9.18;;;5.97;;
30020;SDS011;16861;52.294;7.760;2022-12-05T10:17:40;10.80;;;6.25;;
30020;SDS011;16861;52.294;7.760;2022-12-05T10:20:16;10.32;;;6.50;;
30020;SDS011;16861;52.294;7.760;2022-12-05T10:22:52;9.68;;;6.63;;
30020;SDS011;16861;52.294;7.760;2022-12-05T10:25:24;11.00;;;6.75;;
30020;SDS011;16861;52.294;7.760;2022-12-05T10:27:54;10.15;;;6.63;;
30020;SDS011;16861;52.294;7.760;2022-12-05T10:30:24;8.50;;;6.20;;
30020;SDS011;16861;52.294;7.760;2022-12-05T10:32:58;9.00;;;6.10;;
30020;SDS011;16861;52.294;7.760;2022-12-05T10:35:36;8.65;;;5.70;;
30020;SDS011;16861;52.294;7.760;2022-12-05T10:38:05;8.50;;;5.60;;
30020;SDS011;16861;52.294;7.760;2022-12-05T10:40:36;8.85;;;6.18;;
30020;SDS011;16861;52.294;7.760;2022-12-05T10:43:05;8.23;;;5.97;;
30020;SDS011;16861;52.294;7.760;2022-12-05T10:45:40;9.48;;;6.85;;
30020;SDS011;16861;52.294;7.760;2022-12-05T10:48:14;9.90;;;6.13;;
30020;SDS011;16861;52.294;7.760;2022-12-05T10:50:43;10.77;;;6.57;;
30020;SDS011;16861;52.294;7.760;2022-12-05T10:53:37;8.57;;;6.35;;
30020;SDS011;16861;52.294;7.760;2022-12-05T10:56:34;9.77;;;6.75;;
30020;SDS011;16861;52.294;7.760;2022-12-05T10:59:07;10.45;;;6.20;;
30020;SDS011;16861;52.294;7.760;2022-12-05T11:01:36;9.38;;;6.45;;
30020;SDS011;16861;52.294;7.760;2022-12-05T11:04:11;9.45;;;6.47;;
30020;SDS011;16861;52.294;7.760;2022-12-05T11:06:48;8.85;;;5.90;;
30020;SDS011;16861;52.294;7.760;2022-12-05T11:09:18;7.97;;;5.78;;
30020;SDS011;16861;52.294;7.760;2022-12-05T11:12:47;8.52;;;5.88;;
30020;SDS011;16861;52.294;7.760;2022-12-05T11:15:00;8.57;;;5.80;;
30020;SDS011;16861;52.294;7.760;2022-12-05T11:20:02;7.95;;;5.28;;
30020;SDS011;16861;52.294;7.760;2022-12-05T11:22:48;8.43;;;6.10;;
30020;SDS011;16861;52.294;7.760;2022-12-05T11:27:57;8.30;;;5.95;;
30020;SDS011;16861;52.294;7.760;2022-12-05T11:30:27;8.38;;;6.28;;
30020;SDS011;16861;52.294;7.760;2022-12-05T11:36:00;7.68;;;5.70;;
30020;SDS011;16861;52.294;7.760;2022-12-05T11:38:44;8.38;;;5.70;;
30020;SDS011;16861;52.294;7.760;2022-12-05T11:41:31;7.53;;;5.75;;
30020;SDS011;16861;52.294;7.760;2022-12-05T11:44:22;8.57;;;6.18;;
30020;SDS011;16861;52.294;7.760;2022-12-05T11:47:09;8.00;;;5.22;;
30020;SDS011;16861;52.294;7.760;2022-12-05T11:55:32;10.65;;;6.15;;
30020;SDS011;16861;52.294;7.760;2022-12-05T12:12:42;7.18;;;5.68;;
30020;SDS011;16861;52.294;7.760;2022-12-05T12:22:13;7.82;;;5.45;;
30020;SDS011;16861;52.294;7.760;2022-12-05T12:32:54;7.45;;;5.72;;
30020;SDS011;16861;52.294;7.760;2022-12-05T12:35:31;7.78;;;5.80;;
30020;SDS011;16861;52.294;7.760;2022-12-05T12:38:18;6.00;;;5.10;;
30020;SDS011;16861;52.294;7.760;2022-12-05T12:41:02;6.20;;;4.90;;
30020;SDS011;16861;52.294;7.760;2022-12-05T12:46:56;6.88;;;4.95;;
30020;SDS011;16861;52.294;7.760;2022-12-05T12:52:14;6.78;;;4.75;;
30020;SDS011;16861;52.294;7.760;2022-12-05T13:03:11;5.95;;;4.47;;
30020;SDS011;16861;52.294;7.760;2022-12-05T13:05:46;5.68;;;4.40;;
30020;SDS011;16861;52.294;7.760;2022-12-05T13:08:18;5.82;;;4.35;;
30020;SDS011;16861;52.294;7.760;2022-12-05T13:10:51;6.38;;;4.38;;
30020;SDS011;16861;52.294;7.760;2022-12-05T13:13:22;5.45;;;4.30;;
30020;SDS011;16861;52.294;7.760;2022-12-05T13:15:54;6.13;;;4.65;;
30020;SDS011;16861;52.294;7.760;2022-12-05T13:18:25;6.82;;;5.63;;
30020;SDS011;16861;52.294;7.760;2022-12-05T13:20:53;8.30;;;5.63;;
30020;SDS011;16861;52.294;7.760;2022-12-05T13:23:23;9.27;;;5.47;;
30020;SDS011;16861;52.294;7.760;2022-12-05T13:25:52;6.93;;;5.60;;
30020;SDS011;16861;52.294;7.760;2022-12-05T13:28:30;7.82;;;5.45;;
30020;SDS011;16861;52.294;7.760;2022-12-05T13:31:00;6.85;;;5.30;;
30020;SDS011;16861;52.294;7.760;2022-12-05T13:33:34;8.52;;;5.18;;
30020;SDS011;16861;52.294;7.760;2022-12-05T13:36:09;5.25;;;4.57;;
30020;SDS011;16861;52.294;7.760;2022-12-05T13:39:00;6.13;;;4.65;;
30020;SDS011;16861;52.294;7.760;2022-12-05T13:41:49;6.20;;;4.05;;
30020;SDS011;16861;52.294;7.760;2022-12-05T13:50:32;4.25;;;3.78;;
30020;SDS011;16861;52.294;7.760;2022-12-05T13:53:21;4.65;;;4.07;;
30020;SDS011;16861;52.294;7.760;2022-12-05T13:55:56;5.07;;;3.60;;
30020;SDS011;16861;52.294;7.760;2022-12-05T13:58:53;4.57;;;3.70;;
30020;SDS011;16861;52.294;7.760;2022-12-05T14:03:54;5.03;;;4.22;;
30020;SDS011;16861;52.294;7.760;2022-12-05T14:09:26;7.90;;;4.30;;
30020;SDS011;16861;52.294;7.760;2022-12-05T14:20:18;5.45;;;3.88;;
30020;SDS011;16861;52.294;7.760;2022-12-05T14:23:10;4.47;;;3.83;;
30020;SDS011;16861;52.294;7.760;2022-12-05T14:25:43;4.80;;;3.63;;
30020;SDS011;16861;52.294;7.760;2022-12-05T14:28:34;5.50;;;3.92;;
30020;SDS011;16861;52.294;7.760;2022-12-05T14:36:56;5.07;;;3.80;;
30020;SDS011;16861;52.294;7.760;2022-12-05T14:39:38;5.13;;;3.42;;
30020;SDS011;16861;52.294;7.760;2022-12-05T14:42:31;4.38;;;3.42;;
30020;SDS011;16861;52.294;7.760;2022-12-05T14:45:26;4.72;;;3.80;;
30020;SDS011;16861;52.294;7.760;2022-12-05T14:48:24;4.93;;;3.22;;
30020;SDS011;16861;52.294;7.760;2022-12-05T14:54:07;4.10;;;2.83;;
30020;SDS011;16861;52.294;7.760;2022-12-05T14:56:39;4.00;;;2.95;;
30020;SDS011;16861;52.294;7.760;2022-12-05T14:59:27;4.07;;;3.15;;
30020;SDS011;16861;52.294;7.760;2022-12-05T15:01:58;3.50;;;2.97;;
30020;SDS011;16861;52.294;7.760;2022-12-05T15:04:37;3.22;;;2.58;;
30020;SDS011;16861;52.294;7.760;2022-12-05T15:07:09;4.35;;;2.38;;
30020;SDS011;16861;52.294;7.760;2022-12-05T15:12:12;3.75;;;2.70;;
30020;SDS011;16861;52.294;7.760;2022-12-05T15:15:18;4.88;;;2.53;;
30020;SDS011;16861;52.294;7.760;2022-12-05T15:17:55;3.35;;;2.50;;
30020;SDS011;16861;52.294;7.760;2022-12-05T15:20:44;3.47;;;2.72;;
30020;SDS011;16861;52.294;7.760;2022-12-05T15:23:55;3.80;;;3.13;;
30020;SDS011;16861;52.294;7.760;2022-12-05T15:31:46;2.40;;;1.90;;
30020;SDS011;16861;52.294;7.760;2022-12-05T15:37:14;3.90;;;2.92;;
30020;SDS011;16861;52.294;7.760;2022-12-05T15:40:27;3.58;;;2.67;;
30020;SDS011;16861;52.294;7.760;2022-12-05T15:42:35;3.35;;;2.67;;
30020;SDS011;16861;52.294;7.760;2022-12-05T15:47:45;4.38;;;3.30;;
30020;SDS011;16861;52.294;7.760;2022-12-05T15:50:21;3.85;;;3.20;;
30020;SDS011;16861;52.294;7.760;2022-12-05T15:55:26;9.07;;;3.78;;
30020;SDS011;16861;52.294;7.760;2022-12-05T15:58:05;4.28;;;3.33;;
30020;SDS011;16861;52.294;7.760;2022-12-05T16:00:41;3.67;;;3.28;;
30020;SDS011;16861;52.294;7.760;2022-12-05T16:03:57;7.10;;;3.85;;
30020;SDS011;16861;52.294;7.760;2022-12-05T16:06:28;3.72;;;2.80;;
30020;SDS011;16861;52.294;7.760;2022-12-05T16:08:56;3.70;;;2.80;;
30020;SDS011;16861;52.294;7.760;2022-12-05T16:11:24;4.95;;;3.20;;
30020;SDS011;16861;52.294;7.760;2022-12-05T16:13:54;3.72;;;3.28;;
30020;SDS011;16861;52.294;7.760;2022-12-05T16:16:27;5.53;;;3.22;;
30020;SDS011;16861;52.294;7.760;2022-12-05T16:18:58;4.28;;;3.60;;
30020;SDS011;16861;52.294;7.760;2022-12-05T16:21:31;3.83;;;3.08;;
30020;SDS011;16861;52.294;7.760;2022-12-05T16:24:14;5.50;;;3.60;;
30020;SDS011;16861;52.294;7.760;2022-12-05T16:26:43;3.50;;;2.83;;
30020;SDS011;16861;52.294;7.760;2022-12-05T16:29:26;7.63;;;3.90;;
30020;SDS011;16861;52.294;7.760;2022-12-05T16:31:58;7.68;;;3.65;;
30020;SDS011;16861;52.294;7.760;2022-12-05T16:34:31;5.40;;;3.30;;
30020;SDS011;16861;52.294;7.760;2022-12-05T16:36:58;4.78;;;3.53;;
30020;SDS011;16861;52.294;7.760;2022-12-05T16:39:25;5.30;;;3.50;;
30020;SDS011;16861;52.294;7.760;2022-12-05T16:41:55;3.47;;;3.00;;
30020;SDS011;16861;52.294;7.760;2022-12-05T16:47:25;3.00;;;2.33;;
30020;SDS011;16861;52.294;7.760;2022-12-05T16:50:19;2.90;;;2.58;;
30020;SDS011;16861;52.294;7.760;2022-12-05T16:52:48;4.60;;;3.10;;
30020;SDS011;16861;52.294;7.760;2022-12-05T16:55:14;3.70;;;2.95;;
30020;SDS011;16861;52.294;7.760;2022-12-05T16:57:41;3.70;;;2.95;;
30020;SDS011;16861;52.294;7.760;2022-12-05T17:00:13;4.05;;;3.20;;
30020;SDS011;16861;52.294;7.760;2022-12-05T17:02:40;4.10;;;3.40;;
30020;SDS011;16861;52.294;7.760;2022-12-05T17:05:13;4.28;;;2.53;;
30020;SDS011;16861;52.294;7.760;2022-12-05T17:10:06;4.10;;;2.97;;
30020;SDS011;16861;52.294;7.760;2022-12-05T17:12:33;4.45;;;3.10;;
30020;SDS011;16861;52.294;7.760;2022-12-05T17:14:59;3.10;;;2.60;;
30020;SDS011;16861;52.294;7.760;2022-12-05T17:17:26;3.67;;;2.78;;
30020;SDS011;16861;52.294;7.760;2022-12-05T17:19:53;3.83;;;3.00;;
30020;SDS011;16861;52.294;7.760;2022-12-05T17:22:19;3.40;;;2.78;;
30020;SDS011;16861;52.294;7.760;2022-12-05T17:24:46;4.30;;;2.95;;
30020;SDS011;16861;52.294;7.760;2022-12-05T17:27:12;2.80;;;2.45;;
30020;SDS011;16861;52.294;7.760;2022-12-05T17:29:38;3.72;;;3.17;;
30020;SDS011;16861;52.294;7.760;2022-12-05T17:32:05;3.08;;;2.65;;
30020;SDS011;16861;52.294;7.760;2022-12-05T17:34:31;3.40;;;2.88;;
30020;SDS011;16861;52.294;7.760;2022-12-05T17:36:57;4.75;;;3.25;;
30020;SDS011;16861;52.294;7.760;2022-12-05T17:39:25;4.20;;;3.38;;
30020;SDS011;16861;52.294;7.760;2022-12-05T17:41:54;4.03;;;3.10;;
30020;SDS011;16861;52.294;7.760;2022-12-05T17:44:20;4.00;;;3.13;;
30020;SDS011;16861;52.294;7.760;2022-12-05T17:46:47;4.20;;;3.08;;
30020;SDS011;16861;52.294;7.760;2022-12-05T17:49:14;4.75;;;3.50;;
30020;SDS011;16861;52.294;7.760;2022-12-05T17:51:42;4.80;;;3.60;;
30020;SDS011;16861;52.294;7.760;2022-12-05T17:54:29;4.25;;;2.95;;
30020;SDS011;16861;52.294;7.760;2022-12-05T17:56:56;3.80;;;3.28;;